sensor_id;sensor_type;location;lat;lon;timestamp;temperature;humidity
10662;DHT22;5379;51.034;7.006;2022-11-23T00:02:27;12.10;99.90
10662;DHT22;5379;51.034;7.006;2022-11-23T00:04:54;12.10;99.90
10662;DHT22;5379;51.034;7.006;2022-11-23T00:07:21;12.00;99.90
10662;DHT22;5379;51.034;7.006;2022-11-23T00:09:48;12.00;99.90
10662;DHT22;5379;51.034;7.006;2022-11-23T00:12:15;12.10;99.90
10662;DHT22;5379;51.034;7.006;2022-11-23T00:14:42;12.10;99.90
10662;DHT22;5379;51.034;7.006;2022-11-23T00:17:09;12.10;99.90
10662;DHT22;5379;51.034;7.006;2022-11-23T00:19:37;12.20;99.90
10662;DHT22;5379;51.034;7.006;2022-11-23T00:22:04;12.20;99.90
10662;DHT22;5379;51.034;7.006;2022-11-23T00:24:31;12.30;99.90
10662;DHT22;5379;51.034;7.006;2022-11-23T00:26:58;12.30;99.90
10662;DHT22;5379;51.034;7.006;2022-11-23T00:29:25;12.30;99.90
10662;DHT22;5379;51.034;7.006;2022-11-23T00:31:52;12.40;99.90
10662;DHT22;5379;51.034;7.006;2022-11-23T00:34:19;12.40;99.90
10662;DHT22;5379;51.034;7.006;2022-11-23T00:36:49;12.40;99.90
10662;DHT22;5379;51.034;7.006;2022-11-23T00:39:17;12.40;99.90
10662;DHT22;5379;51.034;7.006;2022-11-23T00:41:44;12.40;99.90
10662;DHT22;5379;51.034;7.006;2022-11-23T00:44:11;12.40;99.90
10662;DHT22;5379;51.034;7.006;2022-11-23T00:46:38;12.40;99.90
10662;DHT22;5379;51.034;7.006;2022-11-23T00:49:04;12.40;99.90
10662;DHT22;5379;51.034;7.006;2022-11-23T00:51:33;12.40;99.90
10662;DHT22;5379;51.034;7.006;2022-11-23T00:54:02;12.40;99.90
10662;DHT22;5379;51.034;7.006;2022-11-23T00:56:31;12.40;99.90
10662;DHT22;5379;51.034;7.006;2022-11-23T00:58:59;12.40;99.90
10662;DHT22;5379;51.034;7.006;2022-11-23T01:01:28;12.40;99.90
10662;DHT22;5379;51.034;7.006;2022-11-23T01:03:59;12.40;99.90
10662;DHT22;5379;51.034;7.006;2022-11-23T01:06:28;12.40;99.90
10662;DHT22;5379;51.034;7.006;2022-11-23T01:08:56;12.50;99.90
10662;DHT22;5379;51.034;7.006;2022-11-23T01:11:26;12.50;99.90
10662;DHT22;5379;51.034;7.006;2022-11-23T01:13:54;12.50;99.90
10662;DHT22;5379;51.034;7.006;2022-11-23T01:16:23;12.60;99.90
10662;DHT22;5379;51.034;7.006;2022-11-23T01:18:51;12.60;99.90
10662;DHT22;5379;51.034;7.006;2022-11-23T01:21:19;12.60;99.90
10662;DHT22;5379;51.034;7.006;2022-11-23T01:23:46;12.60;99.90
10662;DHT22;5379;51.034;7.006;2022-11-23T01:26:13;12.50;99.90
10662;DHT22;5379;51.034;7.006;2022-11-23T01:28:41;12.50;99.90
10662;DHT22;5379;51.034;7.006;2022-11-23T05:32:05;11.90;99.90
10662;DHT22;5379;51.034;7.006;2022-11-23T05:34:32;12.00;99.90
10662;DHT22;5379;51.034;7.006;2022-11-23T05:36:59;12.00;99.90
10662;DHT22;5379;51.034;7.006;2022-11-23T05:39:26;12.00;99.90
10662;DHT22;5379;51.034;7.006;2022-11-23T05:41:53;12.00;99.90
10662;DHT22;5379;51.034;7.006;2022-11-23T05:44:20;12.00;99.90
10662;DHT22;5379;51.034;7.006;2022-11-23T05:46:47;12.00;99.90
10662;DHT22;5379;51.034;7.006;2022-11-23T05:49:15;12.10;99.90
10662;DHT22;5379;51.034;7.006;2022-11-23T05:51:42;12.00;99.90
10662;DHT22;5379;51.034;7.006;2022-11-23T05:54:09;11.90;99.90
10662;DHT22;5379;51.034;7.006;2022-11-23T05:56:36;11.80;99.90
10662;DHT22;5379;51.034;7.006;2022-11-23T05:59:03;11.80;99.90
10662;DHT22;5379;51.034;7.006;2022-11-23T06:01:31;11.80;99.90
10662;DHT22;5379;51.034;7.006;2022-11-23T06:03:58;11.80;99.90
10662;DHT22;5379;51.034;7.006;2022-11-23T06:06:27;11.80;99.90
10662;DHT22;5379;51.034;7.006;2022-11-23T06:08:54;11.90;99.90
10662;DHT22;5379;51.034;7.006;2022-11-23T06:11:21;11.90;99.90
10662;DHT22;5379;51.034;7.006;2022-11-23T06:13:48;11.90;99.90
10662;DHT22;5379;51.034;7.006;2022-11-23T06:16:15;11.90;99.90
10662;DHT22;5379;51.034;7.006;2022-11-23T06:18:42;12.00;99.90
10662;DHT22;5379;51.034;7.006;2022-11-23T06:21:09;12.00;99.90
10662;DHT22;5379;51.034;7.006;2022-11-23T06:23:37;11.90;99.90
10662;DHT22;5379;51.034;7.006;2022-11-23T06:26:05;11.90;99.90
10662;DHT22;5379;51.034;7.006;2022-11-23T06:28:32;11.90;99.90
10662;DHT22;5379;51.034;7.006;2022-11-23T06:31:01;11.90;99.90
10662;DHT22;5379;51.034;7.006;2022-11-23T06:33:28;12.10;99.90
10662;DHT22;5379;51.034;7.006;2022-11-23T06:35:56;12.20;99.90
10662;DHT22;5379;51.034;7.006;2022-11-23T06:38:23;12.30;99.90
10662;DHT22;5379;51.034;7.006;2022-11-23T06:40:52;12.20;99.90
10662;DHT22;5379;51.034;7.006;2022-11-23T06:43:19;12.20;99.90
10662;DHT22;5379;51.034;7.006;2022-11-23T06:45:46;12.10;99.90
10662;DHT22;5379;51.034;7.006;2022-11-23T06:48:13;12.10;99.90
10662;DHT22;5379;51.034;7.006;2022-11-23T06:50:40;12.00;99.90
10662;DHT22;5379;51.034;7.006;2022-11-23T06:53:08;11.90;99.90
10662;DHT22;5379;51.034;7.006;2022-11-23T06:55:36;12.00;99.90
10662;DHT22;5379;51.034;7.006;2022-11-23T06:58:06;12.00;99.90
10662;DHT22;5379;51.034;7.006;2022-11-23T07:00:33;12.10;99.90
10662;DHT22;5379;51.034;7.006;2022-11-23T07:03:00;12.10;99.90
10662;DHT22;5379;51.034;7.006;2022-11-23T07:05:27;12.10;99.90
10662;DHT22;5379;51.034;7.006;2022-11-23T07:07:54;12.10;99.90
10662;DHT22;5379;51.034;7.006;2022-11-23T07:10:22;12.10;99.90
10662;DHT22;5379;51.034;7.006;2022-11-23T07:12:50;12.10;99.90
10662;DHT22;5379;51.034;7.006;2022-11-23T07:15:18;12.00;99.90
10662;DHT22;5379;51.034;7.006;2022-11-23T07:17:45;11.90;99.90
10662;DHT22;5379;51.034;7.006;2022-11-23T07:20:13;11.80;99.90
10662;DHT22;5379;51.034;7.006;2022-11-23T07:22:40;11.90;99.90
10662;DHT22;5379;51.034;7.006;2022-11-23T07:25:07;11.90;99.90
10662;DHT22;5379;51.034;7.006;2022-11-23T07:27:36;12.00;99.90
10662;DHT22;5379;51.034;7.006;2022-11-23T07:30:04;12.00;99.90
10662;DHT22;5379;51.034;7.006;2022-11-23T07:32:32;12.00;99.90
10662;DHT22;5379;51.034;7.006;2022-11-23T07:34:59;12.10;99.90
10662;DHT22;5379;51.034;7.006;2022-11-23T07:37:26;12.10;99.90
10662;DHT22;5379;51.034;7.006;2022-11-23T07:39:53;11.90;99.90
10662;DHT22;5379;51.034;7.006;2022-11-23T07:42:20;11.80;99.90
10662;DHT22;5379;51.034;7.006;2022-11-23T07:44:47;11.70;99.90
10662;DHT22;5379;51.034;7.006;2022-11-23T07:47:14;11.70;99.90
10662;DHT22;5379;51.034;7.006;2022-11-23T07:49:42;11.80;99.90
10662;DHT22;5379;51.034;7.006;2022-11-23T07:52:09;11.80;99.90
10662;DHT22;5379;51.034;7.006;2022-11-23T07:54:36;11.80;99.90
10662;DHT22;5379;51.034;7.006;2022-11-23T07:57:03;11.90;99.90
10662;DHT22;5379;51.034;7.006;2022-11-23T07:59:30;11.90;99.90
10662;DHT22;5379;51.034;7.006;2022-11-23T08:01:57;11.90;99.90
10662;DHT22;5379;51.034;7.006;2022-11-23T08:04:24;11.80;99.90
10662;DHT22;5379;51.034;7.006;2022-11-23T08:06:53;11.80;99.90
10662;DHT22;5379;51.034;7.006;2022-11-23T08:09:20;11.80;99.90
10662;DHT22;5379;51.034;7.006;2022-11-23T08:11:47;11.80;99.90
10662;DHT22;5379;51.034;7.006;2022-11-23T08:14:14;11.90;99.90
10662;DHT22;5379;51.034;7.006;2022-11-23T08:16:41;11.90;99.90
10662;DHT22;5379;51.034;7.006;2022-11-23T08:19:12;11.90;99.90
10662;DHT22;5379;51.034;7.006;2022-11-23T08:21:39;12.00;99.90
10662;DHT22;5379;51.034;7.006;2022-11-23T08:24:08;12.00;99.90
10662;DHT22;5379;51.034;7.006;2022-11-23T08:26:35;11.90;99.90
10662;DHT22;5379;51.034;7.006;2022-11-23T08:29:02;12.00;99.90
10662;DHT22;5379;51.034;7.006;2022-11-23T08:31:35;12.00;99.90
10662;DHT22;5379;51.034;7.006;2022-11-23T08:34:02;12.00;99.90
10662;DHT22;5379;51.034;7.006;2022-11-23T08:36:29;12.10;99.90
10662;DHT22;5379;51.034;7.006;2022-11-23T08:38:57;12.20;99.90
10662;DHT22;5379;51.034;7.006;2022-11-23T08:41:25;12.20;99.90
10662;DHT22;5379;51.034;7.006;2022-11-23T08:43:52;12.40;99.90
10662;DHT22;5379;51.034;7.006;2022-11-23T08:46:19;12.40;99.90
10662;DHT22;5379;51.034;7.006;2022-11-23T08:48:46;12.30;99.90
10662;DHT22;5379;51.034;7.006;2022-11-23T08:51:13;12.20;99.90
10662;DHT22;5379;51.034;7.006;2022-11-23T08:53:47;12.30;99.90
10662;DHT22;5379;51.034;7.006;2022-11-23T08:56:14;12.20;99.90
10662;DHT22;5379;51.034;7.006;2022-11-23T08:58:42;12.30;99.90
10662;DHT22;5379;51.034;7.006;2022-11-23T09:01:10;12.30;99.90
10662;DHT22;5379;51.034;7.006;2022-11-23T09:03:38;12.30;99.90
10662;DHT22;5379;51.034;7.006;2022-11-23T09:06:05;12.40;99.90
10662;DHT22;5379;51.034;7.006;2022-11-23T09:08:33;12.50;99.90
10662;DHT22;5379;51.034;7.006;2022-11-23T09:11:00;12.50;99.90
10662;DHT22;5379;51.034;7.006;2022-11-23T09:13:28;12.40;99.90
10662;DHT22;5379;51.034;7.006;2022-11-23T09:16:01;12.50;99.90
10662;DHT22;5379;51.034;7.006;2022-11-23T09:18:28;12.50;99.90
10662;DHT22;5379;51.034;7.006;2022-11-23T09:20:56;12.60;99.90
10662;DHT22;5379;51.034;7.006;2022-11-23T09:23:23;12.60;99.90
10662;DHT22;5379;51.034;7.006;2022-11-23T09:25:51;12.70;99.90
10662;DHT22;5379;51.034;7.006;2022-11-23T09:28:18;12.80;99.90
10662;DHT22;5379;51.034;7.006;2022-11-23T09:30:45;12.70;99.90
10662;DHT22;5379;51.034;7.006;2022-11-23T09:33:14;12.80;99.90
10662;DHT22;5379;51.034;7.006;2022-11-23T09:35:41;12.70;99.90
10662;DHT22;5379;51.034;7.006;2022-11-23T09:38:08;12.70;99.90
10662;DHT22;5379;51.034;7.006;2022-11-23T09:40:37;12.70;99.90
10662;DHT22;5379;51.034;7.006;2022-11-23T09:43:31;12.60;99.90
10662;DHT22;5379;51.034;7.006;2022-11-23T09:46:05;12.50;99.90
10662;DHT22;5379;51.034;7.006;2022-11-23T09:48:48;12.50;99.90
10662;DHT22;5379;51.034;7.006;2022-11-23T09:51:21;12.60;99.90
10662;DHT22;5379;51.034;7.006;2022-11-23T09:53:51;12.70;99.90
10662;DHT22;5379;51.034;7.006;2022-11-23T09:56:21;12.70;99.90
10662;DHT22;5379;51.034;7.006;2022-11-23T09:58:52;12.80;99.90
10662;DHT22;5379;51.034;7.006;2022-11-23T10:01:20;12.80;99.90
10662;DHT22;5379;51.034;7.006;2022-11-23T10:03:49;12.80;99.90
10662;DHT22;5379;51.034;7.006;2022-11-23T10:06:18;12.80;99.90
10662;DHT22;5379;51.034;7.006;2022-11-23T10:09:11;12.90;99.90
10662;DHT22;5379;51.034;7.006;2022-11-23T10:11:57;12.90;99.90
10662;DHT22;5379;51.034;7.006;2022-11-23T10:14:38;12.70;99.90
10662;DHT22;5379;51.034;7.006;2022-11-23T10:17:18;12.60;99.90
10662;DHT22;5379;51.034;7.006;2022-11-23T10:20:16;12.70;99.90
10662;DHT22;5379;51.034;7.006;2022-11-23T10:22:50;12.80;99.90
10662;DHT22;5379;51.034;7.006;2022-11-23T10:25:20;12.90;99.90
10662;DHT22;5379;51.034;7.006;2022-11-23T10:27:49;13.00;99.90
10662;DHT22;5379;51.034;7.006;2022-11-23T10:30:18;13.20;99.90
10662;DHT22;5379;51.034;7.006;2022-11-23T10:32:49;13.20;99.90
10662;DHT22;5379;51.034;7.006;2022-11-23T10:35:22;13.10;99.90
10662;DHT22;5379;51.034;7.006;2022-11-23T10:38:04;13.20;99.90
10662;DHT22;5379;51.034;7.006;2022-11-23T10:40:34;13.10;99.90
10662;DHT22;5379;51.034;7.006;2022-11-23T10:43:09;12.90;99.90
10662;DHT22;5379;51.034;7.006;2022-11-23T10:45:40;12.90;99.90
10662;DHT22;5379;51.034;7.006;2022-11-23T10:48:07;12.90;99.90
10662;DHT22;5379;51.034;7.006;2022-11-23T10:50:37;13.00;99.90
10662;DHT22;5379;51.034;7.006;2022-11-23T10:53:20;13.10;99.90
10662;DHT22;5379;51.034;7.006;2022-11-23T10:55:50;13.20;99.90
10662;DHT22;5379;51.034;7.006;2022-11-23T10:58:26;13.30;99.90
10662;DHT22;5379;51.034;7.006;2022-11-23T11:00:58;13.30;99.90
10662;DHT22;5379;51.034;7.006;2022-11-23T11:03:30;13.40;99.90
10662;DHT22;5379;51.034;7.006;2022-11-23T11:05:59;13.30;99.90
10662;DHT22;5379;51.034;7.006;2022-11-23T11:08:28;13.30;99.90
10662;DHT22;5379;51.034;7.006;2022-11-23T11:10:58;13.40;99.90
10662;DHT22;5379;51.034;7.006;2022-11-23T11:13:28;13.30;99.90
10662;DHT22;5379;51.034;7.006;2022-11-23T11:15:57;13.20;99.90
10662;DHT22;5379;51.034;7.006;2022-11-23T11:18:27;13.30;99.90
10662;DHT22;5379;51.034;7.006;2022-11-23T11:20:59;13.30;99.90
10662;DHT22;5379;51.034;7.006;2022-11-23T11:23:27;13.30;99.90
10662;DHT22;5379;51.034;7.006;2022-11-23T11:26:12;13.40;99.90
10662;DHT22;5379;51.034;7.006;2022-11-23T11:28:41;13.40;99.90
10662;DHT22;5379;51.034;7.006;2022-11-23T11:34:06;13.50;99.90
10662;DHT22;5379;51.034;7.006;2022-11-23T11:36:40;13.50;99.90
10662;DHT22;5379;51.034;7.006;2022-11-23T11:39:13;13.60;99.90
10662;DHT22;5379;51.034;7.006;2022-11-23T11:41:42;13.60;99.90
10662;DHT22;5379;51.034;7.006;2022-11-23T11:44:15;13.60;99.90
10662;DHT22;5379;51.034;7.006;2022-11-23T11:46:46;13.40;99.90
10662;DHT22;5379;51.034;7.006;2022-11-23T11:49:18;13.40;99.90
10662;DHT22;5379;51.034;7.006;2022-11-23T11:51:50;13.40;99.90
10662;DHT22;5379;51.034;7.006;2022-11-23T11:54:23;13.50;99.90
10662;DHT22;5379;51.034;7.006;2022-11-23T11:56:59;13.40;99.90
10662;DHT22;5379;51.034;7.006;2022-11-23T11:59:29;13.40;99.90
10662;DHT22;5379;51.034;7.006;2022-11-23T12:02:03;13.50;99.90
10662;DHT22;5379;51.034;7.006;2022-11-23T12:04:44;13.60;99.90
10662;DHT22;5379;51.034;7.006;2022-11-23T12:07:17;13.50;99.90
10662;DHT22;5379;51.034;7.006;2022-11-23T12:09:51;13.60;99.90
10662;DHT22;5379;51.034;7.006;2022-11-23T12:12:20;13.70;99.90
10662;DHT22;5379;51.034;7.006;2022-11-23T12:14:48;13.60;99.90
10662;DHT22;5379;51.034;7.006;2022-11-23T12:17:32;13.40;99.90
10662;DHT22;5379;51.034;7.006;2022-11-23T12:20:09;13.50;99.90
10662;DHT22;5379;51.034;7.006;2022-11-23T12:22:54;13.50;99.90
10662;DHT22;5379;51.034;7.006;2022-11-23T12:25:29;13.50;99.90
10662;DHT22;5379;51.034;7.006;2022-11-23T12:28:14;13.50;99.90
10662;DHT22;5379;51.034;7.006;2022-11-23T12:30:52;13.60;99.90
10662;DHT22;5379;51.034;7.006;2022-11-23T12:36:36;13.70;99.90
10662;DHT22;5379;51.034;7.006;2022-11-23T12:39:19;13.60;99.90
10662;DHT22;5379;51.034;7.006;2022-11-23T12:41:55;13.70;99.90
10662;DHT22;5379;51.034;7.006;2022-11-23T12:44:49;13.50;99.90
10662;DHT22;5379;51.034;7.006;2022-11-23T12:47:28;13.50;99.90
10662;DHT22;5379;51.034;7.006;2022-11-23T12:50:02;13.50;99.90
10662;DHT22;5379;51.034;7.006;2022-11-23T12:52:42;13.60;99.90
10662;DHT22;5379;51.034;7.006;2022-11-23T12:55:22;13.50;99.90
10662;DHT22;5379;51.034;7.006;2022-11-23T12:57:55;13.50;99.90
10662;DHT22;5379;51.034;7.006;2022-11-23T13:00:26;13.70;99.90
10662;DHT22;5379;51.034;7.006;2022-11-23T13:09:20;13.80;99.40
10662;DHT22;5379;51.034;7.006;2022-11-23T13:12:07;13.70;99.90
10662;DHT22;5379;51.034;7.006;2022-11-23T13:14:43;13.70;99.70
10662;DHT22;5379;51.034;7.006;2022-11-23T13:17:27;13.70;99.30
10662;DHT22;5379;51.034;7.006;2022-11-23T13:20:14;13.80;99.50
10662;DHT22;5379;51.034;7.006;2022-11-23T13:22:48;13.90;99.90
10662;DHT22;5379;51.034;7.006;2022-11-23T13:25:24;13.80;99.60
10662;DHT22;5379;51.034;7.006;2022-11-23T13:27:58;13.90;99.40
10662;DHT22;5379;51.034;7.006;2022-11-23T13:30:31;14.00;99.30
10662;DHT22;5379;51.034;7.006;2022-11-23T13:35:56;14.20;99.90
10662;DHT22;5379;51.034;7.006;2022-11-23T13:38:39;14.10;99.40
10662;DHT22;5379;51.034;7.006;2022-11-23T13:41:55;13.90;99.90
10662;DHT22;5379;51.034;7.006;2022-11-23T13:44:28;13.70;99.90
10662;DHT22;5379;51.034;7.006;2022-11-23T13:47:02;13.70;99.70
10662;DHT22;5379;51.034;7.006;2022-11-23T13:49:31;13.70;99.70
10662;DHT22;5379;51.034;7.006;2022-11-23T13:52:05;13.70;99.70
10662;DHT22;5379;51.034;7.006;2022-11-23T13:54:32;13.80;99.50
10662;DHT22;5379;51.034;7.006;2022-11-23T13:57:01;13.80;99.90
10662;DHT22;5379;51.034;7.006;2022-11-23T13:59:32;13.70;99.40
10662;DHT22;5379;51.034;7.006;2022-11-23T14:02:26;13.60;99.30
10662;DHT22;5379;51.034;7.006;2022-11-23T14:07:55;13.50;99.90
10662;DHT22;5379;51.034;7.006;2022-11-23T14:10:23;13.50;99.30
10662;DHT22;5379;51.034;7.006;2022-11-23T14:12:54;13.60;99.40
10662;DHT22;5379;51.034;7.006;2022-11-23T14:15:25;13.60;99.40
10662;DHT22;5379;51.034;7.006;2022-11-23T14:21:06;13.60;99.50
10662;DHT22;5379;51.034;7.006;2022-11-23T14:26:44;13.60;99.60
10662;DHT22;5379;51.034;7.006;2022-11-23T14:29:39;13.40;99.90
10662;DHT22;5379;51.034;7.006;2022-11-23T14:32:25;13.30;99.80
10662;DHT22;5379;51.034;7.006;2022-11-23T14:35:07;13.30;99.60
10662;DHT22;5379;51.034;7.006;2022-11-23T14:37:46;13.30;99.80
10662;DHT22;5379;51.034;7.006;2022-11-23T14:40:23;13.30;99.80
10662;DHT22;5379;51.034;7.006;2022-11-23T14:42:53;13.30;99.90
10662;DHT22;5379;51.034;7.006;2022-11-23T14:45:22;13.20;99.90
10662;DHT22;5379;51.034;7.006;2022-11-23T14:47:54;13.10;99.90
10662;DHT22;5379;51.034;7.006;2022-11-23T14:50:22;13.00;99.90
10662;DHT22;5379;51.034;7.006;2022-11-23T14:52:50;13.20;99.90
10662;DHT22;5379;51.034;7.006;2022-11-23T14:55:21;13.10;99.90
10662;DHT22;5379;51.034;7.006;2022-11-23T14:57:50;13.00;99.90
10662;DHT22;5379;51.034;7.006;2022-11-23T15:00:30;13.00;99.90
10662;DHT22;5379;51.034;7.006;2022-11-23T15:03:04;13.00;99.90
10662;DHT22;5379;51.034;7.006;2022-11-23T15:05:33;13.10;99.90
10662;DHT22;5379;51.034;7.006;2022-11-23T15:08:04;13.10;99.90
10662;DHT22;5379;51.034;7.006;2022-11-23T15:10:43;13.30;99.90
10662;DHT22;5379;51.034;7.006;2022-11-23T15:13:19;13.60;99.90
10662;DHT22;5379;51.034;7.006;2022-11-23T15:15:49;13.60;99.90
10662;DHT22;5379;51.034;7.006;2022-11-23T15:18:30;13.40;99.90
10662;DHT22;5379;51.034;7.006;2022-11-23T15:20:59;13.40;99.90
10662;DHT22;5379;51.034;7.006;2022-11-23T15:23:32;13.20;99.90
10662;DHT22;5379;51.034;7.006;2022-11-23T15:26:03;13.20;99.90
10662;DHT22;5379;51.034;7.006;2022-11-23T15:28:34;13.10;99.90
10662;DHT22;5379;51.034;7.006;2022-11-23T15:31:21;13.10;99.90
10662;DHT22;5379;51.034;7.006;2022-11-23T15:33:54;13.10;99.90
10662;DHT22;5379;51.034;7.006;2022-11-23T15:36:24;13.00;99.90
10662;DHT22;5379;51.034;7.006;2022-11-23T15:38:52;13.00;99.90
10662;DHT22;5379;51.034;7.006;2022-11-23T15:41:21;12.80;99.90
10662;DHT22;5379;51.034;7.006;2022-11-23T15:43:52;12.80;99.90
10662;DHT22;5379;51.034;7.006;2022-11-23T15:46:20;12.70;99.90
10662;DHT22;5379;51.034;7.006;2022-11-23T15:48:52;12.60;99.90
10662;DHT22;5379;51.034;7.006;2022-11-23T15:51:28;12.40;99.90
10662;DHT22;5379;51.034;7.006;2022-11-23T15:53:58;12.30;99.90
10662;DHT22;5379;51.034;7.006;2022-11-23T15:56:28;12.50;99.90
10662;DHT22;5379;51.034;7.006;2022-11-23T15:58:57;12.60;99.90
10662;DHT22;5379;51.034;7.006;2022-11-23T16:01:25;12.40;99.90
10662;DHT22;5379;51.034;7.006;2022-11-23T16:03:55;12.30;99.90
10662;DHT22;5379;51.034;7.006;2022-11-23T16:06:37;12.20;99.90
10662;DHT22;5379;51.034;7.006;2022-11-23T16:12:19;12.10;99.90
10662;DHT22;5379;51.034;7.006;2022-11-23T16:14:47;12.20;99.90
10662;DHT22;5379;51.034;7.006;2022-11-23T16:17:16;12.10;99.90
10662;DHT22;5379;51.034;7.006;2022-11-23T16:19:51;11.40;99.90
10662;DHT22;5379;51.034;7.006;2022-11-23T16:22:21;11.90;99.90
10662;DHT22;5379;51.034;7.006;2022-11-23T16:24:51;11.90;99.90
10662;DHT22;5379;51.034;7.006;2022-11-23T16:27:26;11.80;99.90
10662;DHT22;5379;51.034;7.006;2022-11-23T16:29:54;11.70;99.90
10662;DHT22;5379;51.034;7.006;2022-11-23T16:32:24;11.70;99.90
10662;DHT22;5379;51.034;7.006;2022-11-23T16:34:53;11.80;99.90
10662;DHT22;5379;51.034;7.006;2022-11-23T16:37:21;11.90;99.90
10662;DHT22;5379;51.034;7.006;2022-11-23T16:39:48;11.90;99.90
10662;DHT22;5379;51.034;7.006;2022-11-23T16:42:16;11.80;99.90
10662;DHT22;5379;51.034;7.006;2022-11-23T16:44:43;11.60;99.90
10662;DHT22;5379;51.034;7.006;2022-11-23T16:47:18;11.40;99.90
10662;DHT22;5379;51.034;7.006;2022-11-23T16:49:46;11.30;99.90
10662;DHT22;5379;51.034;7.006;2022-11-23T16:52:14;11.40;99.90
10662;DHT22;5379;51.034;7.006;2022-11-23T16:54:41;11.30;99.90
10662;DHT22;5379;51.034;7.006;2022-11-23T16:57:17;11.40;99.90
10662;DHT22;5379;51.034;7.006;2022-11-23T16:59:45;11.40;99.90
10662;DHT22;5379;51.034;7.006;2022-11-23T17:02:13;11.40;99.90
10662;DHT22;5379;51.034;7.006;2022-11-23T17:04:41;11.40;99.90
10662;DHT22;5379;51.034;7.006;2022-11-23T17:07:09;11.40;99.90
10662;DHT22;5379;51.034;7.006;2022-11-23T17:09:37;11.40;99.90
10662;DHT22;5379;51.034;7.006;2022-11-23T17:12:06;11.40;99.90
10662;DHT22;5379;51.034;7.006;2022-11-23T17:14:37;11.40;99.90
10662;DHT22;5379;51.034;7.006;2022-11-23T17:17:09;11.40;99.90
10662;DHT22;5379;51.034;7.006;2022-11-23T17:19:36;11.40;99.90
10662;DHT22;5379;51.034;7.006;2022-11-23T17:22:03;11.40;99.90
10662;DHT22;5379;51.034;7.006;2022-11-23T17:24:30;11.50;99.90
10662;DHT22;5379;51.034;7.006;2022-11-23T17:26:58;11.40;99.90
10662;DHT22;5379;51.034;7.006;2022-11-23T17:29:25;11.40;99.90
10662;DHT22;5379;51.034;7.006;2022-11-23T17:31:52;11.40;99.90
10662;DHT22;5379;51.034;7.006;2022-11-23T17:34:19;11.30;99.90
10662;DHT22;5379;51.034;7.006;2022-11-23T17:36:49;11.30;99.90
10662;DHT22;5379;51.034;7.006;2022-11-23T17:39:20;11.40;99.90
10662;DHT22;5379;51.034;7.006;2022-11-23T17:41:48;11.30;99.90
10662;DHT22;5379;51.034;7.006;2022-11-23T17:44:16;11.40;99.90
10662;DHT22;5379;51.034;7.006;2022-11-23T17:46:44;11.40;99.90
10662;DHT22;5379;51.034;7.006;2022-11-23T17:49:13;11.40;99.90
10662;DHT22;5379;51.034;7.006;2022-11-23T17:51:41;11.40;99.90
10662;DHT22;5379;51.034;7.006;2022-11-23T17:54:08;11.40;99.90
10662;DHT22;5379;51.034;7.006;2022-11-23T17:56:36;11.40;99.90
10662;DHT22;5379;51.034;7.006;2022-11-23T17:59:03;11.30;99.90
10662;DHT22;5379;51.034;7.006;2022-11-23T18:01:32;11.30;99.90
10662;DHT22;5379;51.034;7.006;2022-11-23T18:03:59;11.30;99.90
10662;DHT22;5379;51.034;7.006;2022-11-23T18:06:27;11.40;99.90
10662;DHT22;5379;51.034;7.006;2022-11-23T18:08:55;11.30;99.90
10662;DHT22;5379;51.034;7.006;2022-11-23T18:11:22;11.30;99.90
10662;DHT22;5379;51.034;7.006;2022-11-23T18:13:49;11.30;99.90
10662;DHT22;5379;51.034;7.006;2022-11-23T18:16:17;11.30;99.90
10662;DHT22;5379;51.034;7.006;2022-11-23T18:18:46;11.30;99.90
10662;DHT22;5379;51.034;7.006;2022-11-23T18:21:13;11.40;99.90
10662;DHT22;5379;51.034;7.006;2022-11-23T18:23:40;11.40;99.90
10662;DHT22;5379;51.034;7.006;2022-11-23T18:26:16;11.30;99.90
10662;DHT22;5379;51.034;7.006;2022-11-23T18:28:44;11.30;99.90
10662;DHT22;5379;51.034;7.006;2022-11-23T18:31:11;11.30;99.90
10662;DHT22;5379;51.034;7.006;2022-11-23T18:33:38;11.30;99.90
10662;DHT22;5379;51.034;7.006;2022-11-23T18:36:07;11.30;99.90
10662;DHT22;5379;51.034;7.006;2022-11-23T18:38:35;11.40;99.90
10662;DHT22;5379;51.034;7.006;2022-11-23T18:41:02;11.60;99.90
10662;DHT22;5379;51.034;7.006;2022-11-23T18:43:29;11.70;99.90
10662;DHT22;5379;51.034;7.006;2022-11-23T18:45:57;11.50;99.90
10662;DHT22;5379;51.034;7.006;2022-11-23T18:48:24;11.40;99.90
10662;DHT22;5379;51.034;7.006;2022-11-23T18:50:51;11.40;99.90
10662;DHT22;5379;51.034;7.006;2022-11-23T18:53:20;11.40;99.90
10662;DHT22;5379;51.034;7.006;2022-11-23T18:55:47;11.40;99.90
10662;DHT22;5379;51.034;7.006;2022-11-23T18:58:14;11.40;99.90
10662;DHT22;5379;51.034;7.006;2022-11-23T19:00:42;11.50;99.90
10662;DHT22;5379;51.034;7.006;2022-11-23T19:03:09;11.40;99.90
10662;DHT22;5379;51.034;7.006;2022-11-23T19:05:37;11.20;99.90
10662;DHT22;5379;51.034;7.006;2022-11-23T19:08:05;11.10;99.90
10662;DHT22;5379;51.034;7.006;2022-11-23T19:10:36;11.10;99.90
10662;DHT22;5379;51.034;7.006;2022-11-23T19:13:03;11.20;99.90
10662;DHT22;5379;51.034;7.006;2022-11-23T19:15:30;11.20;99.90
10662;DHT22;5379;51.034;7.006;2022-11-23T19:17:57;11.20;99.90
10662;DHT22;5379;51.034;7.006;2022-11-23T19:20:24;11.20;99.90
10662;DHT22;5379;51.034;7.006;2022-11-23T19:22:51;11.20;99.90
10662;DHT22;5379;51.034;7.006;2022-11-23T19:25:19;11.10;99.90
10662;DHT22;5379;51.034;7.006;2022-11-23T19:27:48;11.20;99.90
10662;DHT22;5379;51.034;7.006;2022-11-23T19:30:16;11.10;99.90
10662;DHT22;5379;51.034;7.006;2022-11-23T19:32:43;11.10;99.90
10662;DHT22;5379;51.034;7.006;2022-11-23T19:35:10;11.10;99.90
10662;DHT22;5379;51.034;7.006;2022-11-23T19:37:38;11.10;99.90
10662;DHT22;5379;51.034;7.006;2022-11-23T19:40:07;11.10;99.90
10662;DHT22;5379;51.034;7.006;2022-11-23T19:42:37;11.10;99.90
10662;DHT22;5379;51.034;7.006;2022-11-23T19:45:08;11.00;99.90
10662;DHT22;5379;51.034;7.006;2022-11-23T19:47:36;11.10;99.90
10662;DHT22;5379;51.034;7.006;2022-11-23T19:50:05;11.00;99.90
10662;DHT22;5379;51.034;7.006;2022-11-23T19:52:33;11.00;99.90
10662;DHT22;5379;51.034;7.006;2022-11-23T19:55:03;10.90;99.90
10662;DHT22;5379;51.034;7.006;2022-11-23T19:57:33;10.80;99.90
10662;DHT22;5379;51.034;7.006;2022-11-23T20:00:00;10.70;99.90
10662;DHT22;5379;51.034;7.006;2022-11-23T20:02:30;10.70;99.90
10662;DHT22;5379;51.034;7.006;2022-11-23T20:04:57;10.70;99.90
10662;DHT22;5379;51.034;7.006;2022-11-23T20:07:24;10.70;99.90
10662;DHT22;5379;51.034;7.006;2022-11-23T20:09:51;10.70;99.90
10662;DHT22;5379;51.034;7.006;2022-11-23T20:12:18;10.70;99.90
10662;DHT22;5379;51.034;7.006;2022-11-23T20:14:45;10.70;99.90
10662;DHT22;5379;51.034;7.006;2022-11-23T20:17:12;10.70;99.90
10662;DHT22;5379;51.034;7.006;2022-11-23T20:19:41;10.60;99.90
10662;DHT22;5379;51.034;7.006;2022-11-23T20:22:08;10.60;99.90
10662;DHT22;5379;51.034;7.006;2022-11-23T20:24:35;10.50;99.90
10662;DHT22;5379;51.034;7.006;2022-11-23T20:27:02;10.50;99.90
10662;DHT22;5379;51.034;7.006;2022-11-23T20:29:29;10.50;99.90
10662;DHT22;5379;51.034;7.006;2022-11-23T20:31:56;10.50;99.90
10662;DHT22;5379;51.034;7.006;2022-11-23T20:34:23;10.40;99.90